sensor_id;sensor_type;location;lat;lon;timestamp;P1;durP1;ratioP1;P2;durP2;ratioP2
54416;SDS011;40326;51.220;7.250;2022-09-09T00:01:40;6.72;;;1.90;;
54416;SDS011;40326;51.220;7.250;2022-09-09T00:04:33;6.95;;;2.15;;
54416;SDS011;40326;51.220;7.250;2022-09-09T00:09:43;3.83;;;1.70;;
54416;SDS011;40326;51.220;7.250;2022-09-09T00:15:03;5.95;;;1.88;;
54416;SDS011;40326;51.220;7.250;2022-09-09T00:17:41;3.38;;;1.63;;
54416;SDS011;40326;51.220;7.250;2022-09-09T00:22:57;4.78;;;1.65;;
54416;SDS011;40326;51.220;7.250;2022-09-09T00:25:51;3.30;;;1.45;;
54416;SDS011;40326;51.220;7.250;2022-09-09T00:28:19;3.30;;;1.30;;
54416;SDS011;40326;51.220;7.250;2022-09-09T00:30:47;5.55;;;1.88;;
54416;SDS011;40326;51.220;7.250;2022-09-09T00:33:13;4.93;;;1.60;;
54416;SDS011;40326;51.220;7.250;2022-09-09T00:35:44;3.80;;;1.60;;
54416;SDS011;40326;51.220;7.250;2022-09-09T00:43:23;5.70;;;1.70;;
54416;SDS011;40326;51.220;7.250;2022-09-09T00:54:32;6.55;;;1.70;;
54416;SDS011;40326;51.220;7.250;2022-09-09T00:57:22;3.88;;;1.60;;
54416;SDS011;40326;51.220;7.250;2022-09-09T00:59:56;4.78;;;1.77;;
54416;SDS011;40326;51.220;7.250;2022-09-09T01:05:18;4.15;;;1.67;;
54416;SDS011;40326;51.220;7.250;2022-09-09T01:07:52;5.68;;;2.10;;
54416;SDS011;40326;51.220;7.250;2022-09-09T01:10:23;4.55;;;1.90;;
54416;SDS011;40326;51.220;7.250;2022-09-09T01:12:56;5.85;;;1.65;;
54416;SDS011;40326;51.220;7.250;2022-09-09T01:15:28;5.05;;;1.75;;
54416;SDS011;40326;51.220;7.250;2022-09-09T01:18:01;4.45;;;2.25;;
54416;SDS011;40326;51.220;7.250;2022-09-09T01:23:38;4.80;;;1.63;;
54416;SDS011;40326;51.220;7.250;2022-09-09T01:26:37;3.63;;;1.77;;
54416;SDS011;40326;51.220;7.250;2022-09-09T01:29:07;4.90;;;1.90;;
54416;SDS011;40326;51.220;7.250;2022-09-09T01:31:38;4.75;;;1.70;;
54416;SDS011;40326;51.220;7.250;2022-09-09T01:34:13;3.25;;;1.60;;
54416;SDS011;40326;51.220;7.250;2022-09-09T01:37:22;7.40;;;2.15;;
54416;SDS011;40326;51.220;7.250;2022-09-09T01:39:33;5.60;;;1.90;;
54416;SDS011;40326;51.220;7.250;2022-09-09T01:42:01;6.47;;;1.85;;
54416;SDS011;40326;51.220;7.250;2022-09-09T01:44:27;4.40;;;1.60;;
54416;SDS011;40326;51.220;7.250;2022-09-09T01:46:54;3.53;;;1.70;;
54416;SDS011;40326;51.220;7.250;2022-09-09T01:49:20;4.72;;;1.60;;
54416;SDS011;40326;51.220;7.250;2022-09-09T01:51:51;3.50;;;1.70;;
54416;SDS011;40326;51.220;7.250;2022-09-09T01:54:22;2.53;;;1.50;;
54416;SDS011;40326;51.220;7.250;2022-09-09T02:04:41;3.85;;;1.50;;
54416;SDS011;40326;51.220;7.250;2022-09-09T02:07:16;5.13;;;1.80;;
54416;SDS011;40326;51.220;7.250;2022-09-09T02:09:58;4.63;;;1.90;;
54416;SDS011;40326;51.220;7.250;2022-09-09T02:14:58;7.63;;;1.73;;
54416;SDS011;40326;51.220;7.250;2022-09-09T02:17:30;6.15;;;1.90;;
54416;SDS011;40326;51.220;7.250;2022-09-09T02:19:59;3.80;;;1.55;;
54416;SDS011;40326;51.220;7.250;2022-09-09T02:22:30;5.07;;;1.70;;
54416;SDS011;40326;51.220;7.250;2022-09-09T02:24:59;6.00;;;1.58;;
54416;SDS011;40326;51.220;7.250;2022-09-09T02:27:25;3.70;;;1.90;;
54416;SDS011;40326;51.220;7.250;2022-09-09T02:29:51;4.40;;;1.55;;
54416;SDS011;40326;51.220;7.250;2022-09-09T02:32:20;4.43;;;1.55;;
54416;SDS011;40326;51.220;7.250;2022-09-09T02:34:58;5.63;;;1.95;;
54416;SDS011;40326;51.220;7.250;2022-09-09T02:37:29;5.13;;;1.67;;
54416;SDS011;40326;51.220;7.250;2022-09-09T02:40:03;5.63;;;1.73;;
54416;SDS011;40326;51.220;7.250;2022-09-09T02:42:30;5.30;;;1.70;;
54416;SDS011;40326;51.220;7.250;2022-09-09T02:44:55;4.60;;;1.77;;
54416;SDS011;40326;51.220;7.250;2022-09-09T02:55:37;6.53;;;1.70;;
54416;SDS011;40326;51.220;7.250;2022-09-09T02:58:10;4.93;;;1.80;;
54416;SDS011;40326;51.220;7.250;2022-09-09T03:00:42;4.30;;;1.50;;
54416;SDS011;40326;51.220;7.250;2022-09-09T03:03:09;3.50;;;1.63;;
54416;SDS011;40326;51.220;7.250;2022-09-09T03:05:34;6.82;;;1.83;;
54416;SDS011;40326;51.220;7.250;2022-09-09T03:08:00;6.93;;;2.10;;
54416;SDS011;40326;51.220;7.250;2022-09-09T03:10:27;5.10;;;1.73;;
54416;SDS011;40326;51.220;7.250;2022-09-09T03:12:52;4.45;;;1.77;;
54416;SDS011;40326;51.220;7.250;2022-09-09T03:15:17;5.10;;;1.88;;
54416;SDS011;40326;51.220;7.250;2022-09-09T03:17:43;6.00;;;1.90;;
54416;SDS011;40326;51.220;7.250;2022-09-09T03:20:08;8.18;;;2.38;;
54416;SDS011;40326;51.220;7.250;2022-09-09T03:22:34;7.07;;;2.15;;
54416;SDS011;40326;51.220;7.250;2022-09-09T03:25:00;5.57;;;1.88;;
54416;SDS011;40326;51.220;7.250;2022-09-09T03:27:27;6.15;;;2.33;;
54416;SDS011;40326;51.220;7.250;2022-09-09T03:29:53;6.43;;;2.30;;
54416;SDS011;40326;51.220;7.250;2022-09-09T03:32:19;5.15;;;2.13;;
54416;SDS011;40326;51.220;7.250;2022-09-09T03:34:47;6.32;;;1.83;;
54416;SDS011;40326;51.220;7.250;2022-09-09T03:37:14;4.78;;;2.10;;
54416;SDS011;40326;51.220;7.250;2022-09-09T03:39:40;6.00;;;2.15;;
54416;SDS011;40326;51.220;7.250;2022-09-09T03:42:06;5.28;;;2.00;;
54416;SDS011;40326;51.220;7.250;2022-09-09T03:44:31;6.50;;;2.50;;
54416;SDS011;40326;51.220;7.250;2022-09-09T03:46:57;6.97;;;2.20;;
54416;SDS011;40326;51.220;7.250;2022-09-09T03:49:25;6.88;;;2.30;;
54416;SDS011;40326;51.220;7.250;2022-09-09T03:51:52;8.90;;;2.30;;
54416;SDS011;40326;51.220;7.250;2022-09-09T03:54:17;7.90;;;2.50;;
54416;SDS011;40326;51.220;7.250;2022-09-09T03:56:42;7.05;;;2.35;;
54416;SDS011;40326;51.220;7.250;2022-09-09T03:59:08;12.88;;;2.65;;
54416;SDS011;40326;51.220;7.250;2022-09-09T04:01:33;7.20;;;2.50;;
54416;SDS011;40326;51.220;7.250;2022-09-09T04:03:59;6.47;;;2.42;;
54416;SDS011;40326;51.220;7.250;2022-09-09T04:06:25;7.35;;;2.10;;
54416;SDS011;40326;51.220;7.250;2022-09-09T04:08:51;5.90;;;2.50;;
54416;SDS011;40326;51.220;7.250;2022-09-09T04:11:17;7.28;;;2.60;;
54416;SDS011;40326;51.220;7.250;2022-09-09T04:13:42;7.82;;;2.10;;
54416;SDS011;40326;51.220;7.250;2022-09-09T04:16:09;5.30;;;2.22;;
54416;SDS011;40326;51.220;7.250;2022-09-09T04:18:36;6.88;;;2.20;;
54416;SDS011;40326;51.220;7.250;2022-09-09T04:21:02;7.82;;;2.42;;
54416;SDS011;40326;51.220;7.250;2022-09-09T04:23:29;6.40;;;2.30;;
54416;SDS011;40326;51.220;7.250;2022-09-09T04:25:56;7.20;;;2.03;;
54416;SDS011;40326;51.220;7.250;2022-09-09T04:28:23;7.72;;;2.10;;
54416;SDS011;40326;51.220;7.250;2022-09-09T04:30:51;4.97;;;2.35;;
54416;SDS011;40326;51.220;7.250;2022-09-09T04:33:17;5.75;;;2.03;;
54416;SDS011;40326;51.220;7.250;2022-09-09T04:35:44;6.47;;;2.50;;
54416;SDS011;40326;51.220;7.250;2022-09-09T04:38:10;4.57;;;2.08;;
54416;SDS011;40326;51.220;7.250;2022-09-09T04:40:36;6.03;;;2.00;;
54416;SDS011;40326;51.220;7.250;2022-09-09T04:43:02;7.97;;;2.38;;
54416;SDS011;40326;51.220;7.250;2022-09-09T04:45:29;4.22;;;1.90;;
54416;SDS011;40326;51.220;7.250;2022-09-09T04:47:55;7.32;;;2.10;;
54416;SDS011;40326;51.220;7.250;2022-09-09T04:50:21;7.93;;;2.30;;
54416;SDS011;40326;51.220;7.250;2022-09-09T04:52:46;7.75;;;2.08;;
54416;SDS011;40326;51.220;7.250;2022-09-09T04:55:12;6.82;;;4.93;;
54416;SDS011;40326;51.220;7.250;2022-09-09T04:57:38;8.02;;;3.53;;
54416;SDS011;40326;51.220;7.250;2022-09-09T05:00:04;5.75;;;2.13;;
54416;SDS011;40326;51.220;7.250;2022-09-09T05:02:31;5.28;;;2.10;;
54416;SDS011;40326;51.220;7.250;2022-09-09T05:04:57;7.65;;;2.38;;
54416;SDS011;40326;51.220;7.250;2022-09-09T05:07:23;5.78;;;2.00;;
54416;SDS011;40326;51.220;7.250;2022-09-09T05:09:48;4.55;;;1.92;;
54416;SDS011;40326;51.220;7.250;2022-09-09T05:12:14;5.40;;;1.95;;
54416;SDS011;40326;51.220;7.250;2022-09-09T05:14:41;5.85;;;1.80;;
54416;SDS011;40326;51.220;7.250;2022-09-09T05:17:07;5.25;;;2.28;;
54416;SDS011;40326;51.220;7.250;2022-09-09T05:19:32;6.78;;;1.85;;
54416;SDS011;40326;51.220;7.250;2022-09-09T05:21:58;6.45;;;2.22;;
54416;SDS011;40326;51.220;7.250;2022-09-09T05:24:23;8.57;;;1.83;;
54416;SDS011;40326;51.220;7.250;2022-09-09T05:26:48;6.93;;;1.90;;
54416;SDS011;40326;51.220;7.250;2022-09-09T05:29:14;3.97;;;1.60;;
54416;SDS011;40326;51.220;7.250;2022-09-09T05:31:39;4.68;;;1.98;;
54416;SDS011;40326;51.220;7.250;2022-09-09T05:34:05;7.38;;;2.10;;
54416;SDS011;40326;51.220;7.250;2022-09-09T05:36:30;10.05;;;1.98;;
54416;SDS011;40326;51.220;7.250;2022-09-09T05:38:58;10.73;;;2.17;;
54416;SDS011;40326;51.220;7.250;2022-09-09T05:41:23;7.80;;;2.20;;
54416;SDS011;40326;51.220;7.250;2022-09-09T05:43:49;7.05;;;2.13;;
54416;SDS011;40326;51.220;7.250;2022-09-09T05:46:15;7.97;;;3.55;;
54416;SDS011;40326;51.220;7.250;2022-09-09T05:48:45;8.48;;;2.90;;
54416;SDS011;40326;51.220;7.250;2022-09-09T05:51:13;4.40;;;1.70;;
54416;SDS011;40326;51.220;7.250;2022-09-09T05:53:40;6.60;;;2.15;;
54416;SDS011;40326;51.220;7.250;2022-09-09T05:56:10;7.07;;;2.00;;
54416;SDS011;40326;51.220;7.250;2022-09-09T05:58:41;6.65;;;1.90;;
54416;SDS011;40326;51.220;7.250;2022-09-09T06:01:10;5.25;;;1.88;;
54416;SDS011;40326;51.220;7.250;2022-09-09T06:03:38;4.80;;;2.80;;
54416;SDS011;40326;51.220;7.250;2022-09-09T06:06:09;7.22;;;2.97;;
54416;SDS011;40326;51.220;7.250;2022-09-09T06:08:37;5.00;;;2.15;;
54416;SDS011;40326;51.220;7.250;2022-09-09T06:11:05;5.07;;;2.08;;
54416;SDS011;40326;51.220;7.250;2022-09-09T06:13:38;7.35;;;2.28;;
54416;SDS011;40326;51.220;7.250;2022-09-09T06:16:14;7.75;;;2.67;;
54416;SDS011;40326;51.220;7.250;2022-09-09T06:18:41;9.13;;;2.30;;
54416;SDS011;40326;51.220;7.250;2022-09-09T06:21:09;7.60;;;2.42;;
54416;SDS011;40326;51.220;7.250;2022-09-09T06:23:39;6.80;;;2.50;;
54416;SDS011;40326;51.220;7.250;2022-09-09T06:26:15;9.25;;;2.80;;
54416;SDS011;40326;51.220;7.250;2022-09-09T06:31:19;6.43;;;2.53;;
54416;SDS011;40326;51.220;7.250;2022-09-09T06:36:22;6.32;;;2.40;;
54416;SDS011;40326;51.220;7.250;2022-09-09T06:38:52;4.20;;;2.25;;
54416;SDS011;40326;51.220;7.250;2022-09-09T06:41:21;6.50;;;2.00;;
54416;SDS011;40326;51.220;7.250;2022-09-09T06:43:47;4.90;;;1.90;;
54416;SDS011;40326;51.220;7.250;2022-09-09T06:46:14;6.45;;;1.77;;
54416;SDS011;40326;51.220;7.250;2022-09-09T06:48:42;6.30;;;1.80;;
54416;SDS011;40326;51.220;7.250;2022-09-09T06:51:13;4.85;;;1.60;;
54416;SDS011;40326;51.220;7.250;2022-09-09T06:53:39;5.30;;;1.70;;
54416;SDS011;40326;51.220;7.250;2022-09-09T06:58:46;4.43;;;2.00;;
54416;SDS011;40326;51.220;7.250;2022-09-09T07:01:12;5.85;;;2.35;;
54416;SDS011;40326;51.220;7.250;2022-09-09T07:03:39;9.00;;;2.20;;
54416;SDS011;40326;51.220;7.250;2022-09-09T07:06:05;5.90;;;1.80;;
54416;SDS011;40326;51.220;7.250;2022-09-09T07:08:32;7.55;;;2.25;;
54416;SDS011;40326;51.220;7.250;2022-09-09T07:11:03;6.60;;;1.95;;
54416;SDS011;40326;51.220;7.250;2022-09-09T07:13:30;8.40;;;2.30;;
54416;SDS011;40326;51.220;7.250;2022-09-09T07:16:02;6.68;;;1.98;;
54416;SDS011;40326;51.220;7.250;2022-09-09T07:18:29;5.03;;;1.80;;
54416;SDS011;40326;51.220;7.250;2022-09-09T07:20:55;5.45;;;1.85;;
54416;SDS011;40326;51.220;7.250;2022-09-09T07:23:23;4.80;;;1.90;;
54416;SDS011;40326;51.220;7.250;2022-09-09T07:25:49;4.18;;;1.50;;
54416;SDS011;40326;51.220;7.250;2022-09-09T07:28:15;2.70;;;1.40;;
54416;SDS011;40326;51.220;7.250;2022-09-09T07:30:40;6.38;;;1.90;;
54416;SDS011;40326;51.220;7.250;2022-09-09T07:33:07;5.57;;;1.92;;
54416;SDS011;40326;51.220;7.250;2022-09-09T07:35:34;6.15;;;1.70;;
54416;SDS011;40326;51.220;7.250;2022-09-09T07:38:03;6.38;;;1.63;;
54416;SDS011;40326;51.220;7.250;2022-09-09T07:40:33;4.70;;;1.40;;
54416;SDS011;40326;51.220;7.250;2022-09-09T07:42:59;6.05;;;1.73;;
54416;SDS011;40326;51.220;7.250;2022-09-09T07:45:24;3.97;;;1.52;;
54416;SDS011;40326;51.220;7.250;2022-09-09T07:47:53;6.07;;;1.70;;
54416;SDS011;40326;51.220;7.250;2022-09-09T07:50:18;4.10;;;1.60;;
54416;SDS011;40326;51.220;7.250;2022-09-09T07:52:43;6.47;;;1.90;;
54416;SDS011;40326;51.220;7.250;2022-09-09T07:55:09;6.22;;;2.00;;
54416;SDS011;40326;51.220;7.250;2022-09-09T07:57:35;5.60;;;1.27;;
54416;SDS011;40326;51.220;7.250;2022-09-09T08:00:01;4.40;;;1.45;;
54416;SDS011;40326;51.220;7.250;2022-09-09T08:02:28;4.47;;;1.42;;
54416;SDS011;40326;51.220;7.250;2022-09-09T08:04:54;5.18;;;1.50;;
54416;SDS011;40326;51.220;7.250;2022-09-09T08:07:19;6.45;;;1.52;;
54416;SDS011;40326;51.220;7.250;2022-09-09T08:09:46;5.75;;;1.60;;
54416;SDS011;40326;51.220;7.250;2022-09-09T08:12:11;4.75;;;1.30;;
54416;SDS011;40326;51.220;7.250;2022-09-09T08:14:37;4.45;;;1.40;;
54416;SDS011;40326;51.220;7.250;2022-09-09T08:17:04;5.47;;;1.30;;
54416;SDS011;40326;51.220;7.250;2022-09-09T08:19:29;3.00;;;1.20;;
54416;SDS011;40326;51.220;7.250;2022-09-09T08:21:55;5.38;;;1.90;;
54416;SDS011;40326;51.220;7.250;2022-09-09T08:24:20;4.82;;;1.20;;
54416;SDS011;40326;51.220;7.250;2022-09-09T08:26:46;5.30;;;1.45;;
54416;SDS011;40326;51.220;7.250;2022-09-09T08:29:16;3.63;;;1.02;;
54416;SDS011;40326;51.220;7.250;2022-09-09T08:31:44;3.75;;;1.20;;
54416;SDS011;40326;51.220;7.250;2022-09-09T08:34:09;6.38;;;1.92;;
54416;SDS011;40326;51.220;7.250;2022-09-09T08:36:40;3.72;;;1.30;;
54416;SDS011;40326;51.220;7.250;2022-09-09T08:39:08;3.78;;;1.15;;
54416;SDS011;40326;51.220;7.250;2022-09-09T08:49:45;5.63;;;1.40;;
54416;SDS011;40326;51.220;7.250;2022-09-09T08:55:01;3.25;;;1.15;;
54416;SDS011;40326;51.220;7.250;2022-09-09T08:57:37;6.23;;;1.30;;
54416;SDS011;40326;51.220;7.250;2022-09-09T09:00:04;3.95;;;1.33;;
54416;SDS011;40326;51.220;7.250;2022-09-09T09:02:42;5.70;;;1.17;;
54416;SDS011;40326;51.220;7.250;2022-09-09T09:05:19;6.55;;;1.48;;
54416;SDS011;40326;51.220;7.250;2022-09-09T09:08:27;5.90;;;1.65;;
54416;SDS011;40326;51.220;7.250;2022-09-09T09:10:56;4.63;;;1.40;;
54416;SDS011;40326;51.220;7.250;2022-09-09T09:13:34;5.28;;;1.15;;
54416;SDS011;40326;51.220;7.250;2022-09-09T09:16:06;9.85;;;1.55;;
54416;SDS011;40326;51.220;7.250;2022-09-09T09:18:42;6.47;;;1.50;;
54416;SDS011;40326;51.220;7.250;2022-09-09T09:23:56;5.57;;;1.52;;
54416;SDS011;40326;51.220;7.250;2022-09-09T09:26:24;5.97;;;1.23;;
54416;SDS011;40326;51.220;7.250;2022-09-09T09:28:53;5.07;;;1.33;;
54416;SDS011;40326;51.220;7.250;2022-09-09T09:31:24;4.95;;;1.80;;
54416;SDS011;40326;51.220;7.250;2022-09-09T09:33:54;5.68;;;1.20;;
54416;SDS011;40326;51.220;7.250;2022-09-09T09:36:23;4.35;;;1.10;;
54416;SDS011;40326;51.220;7.250;2022-09-09T09:38:59;4.50;;;1.30;;
54416;SDS011;40326;51.220;7.250;2022-09-09T09:41:43;5.10;;;1.30;;
54416;SDS011;40326;51.220;7.250;2022-09-09T09:47:15;5.43;;;1.25;;
54416;SDS011;40326;51.220;7.250;2022-09-09T09:49:54;8.27;;;1.25;;
54416;SDS011;40326;51.220;7.250;2022-09-09T09:52:25;6.95;;;1.10;;
54416;SDS011;40326;51.220;7.250;2022-09-09T09:54:52;4.22;;;1.13;;
54416;SDS011;40326;51.220;7.250;2022-09-09T09:57:22;6.88;;;1.35;;
54416;SDS011;40326;51.220;7.250;2022-09-09T10:00:14;4.00;;;1.10;;
54416;SDS011;40326;51.220;7.250;2022-09-09T10:02:45;3.65;;;1.13;;
54416;SDS011;40326;51.220;7.250;2022-09-09T10:07:43;3.63;;;1.00;;
54416;SDS011;40326;51.220;7.250;2022-09-09T10:10:12;2.38;;;1.00;;
54416;SDS011;40326;51.220;7.250;2022-09-09T10:35:08;3.50;;;1.05;;
54416;SDS011;40326;51.220;7.250;2022-09-09T10:46:10;4.32;;;1.30;;
54416;SDS011;40326;51.220;7.250;2022-09-09T10:51:44;2.38;;;0.85;;
54416;SDS011;40326;51.220;7.250;2022-09-09T10:57:22;3.83;;;0.80;;
54416;SDS011;40326;51.220;7.250;2022-09-09T10:59:55;5.65;;;1.13;;
54416;SDS011;40326;51.220;7.250;2022-09-09T11:02:28;3.97;;;1.60;;
54416;SDS011;40326;51.220;7.250;2022-09-09T11:04:57;3.50;;;0.93;;
54416;SDS011;40326;51.220;7.250;2022-09-09T11:07:57;4.10;;;1.10;;
54416;SDS011;40326;51.220;7.250;2022-09-09T11:13:30;2.65;;;0.98;;
54416;SDS011;40326;51.220;7.250;2022-09-09T11:16:22;4.47;;;0.77;;
54416;SDS011;40326;51.220;7.250;2022-09-09T11:19:11;6.57;;;0.98;;
54416;SDS011;40326;51.220;7.250;2022-09-09T11:21:45;2.53;;;0.85;;
54416;SDS011;40326;51.220;7.250;2022-09-09T11:24:23;2.78;;;0.88;;
54416;SDS011;40326;51.220;7.250;2022-09-09T11:27:14;2.90;;;0.80;;
54416;SDS011;40326;51.220;7.250;2022-09-09T11:38:14;1.50;;;0.70;;
54416;SDS011;40326;51.220;7.250;2022-09-09T11:41:00;2.92;;;0.90;;
54416;SDS011;40326;51.220;7.250;2022-09-09T11:43:32;1.55;;;0.63;;
54416;SDS011;40326;51.220;7.250;2022-09-09T11:46:03;2.90;;;0.98;;
54416;SDS011;40326;51.220;7.250;2022-09-09T11:48:36;4.00;;;1.05;;
54416;SDS011;40326;51.220;7.250;2022-09-09T11:51:05;3.47;;;1.02;;
54416;SDS011;40326;51.220;7.250;2022-09-09T11:53:36;4.22;;;1.20;;
54416;SDS011;40326;51.220;7.250;2022-09-09T11:56:24;3.08;;;0.80;;
54416;SDS011;40326;51.220;7.250;2022-09-09T12:01:33;6.43;;;0.88;;
54416;SDS011;40326;51.220;7.250;2022-09-09T12:06:51;4.20;;;0.90;;
54416;SDS011;40326;51.220;7.250;2022-09-09T12:11:51;2.20;;;0.85;;
54416;SDS011;40326;51.220;7.250;2022-09-09T12:14:21;3.95;;;1.25;;
54416;SDS011;40326;51.220;7.250;2022-09-09T12:17:08;3.35;;;1.00;;
54416;SDS011;40326;51.220;7.250;2022-09-09T12:19:36;3.15;;;1.00;;
54416;SDS011;40326;51.220;7.250;2022-09-09T12:22:11;2.88;;;0.95;;
54416;SDS011;40326;51.220;7.250;2022-09-09T12:24:43;5.22;;;0.88;;
54416;SDS011;40326;51.220;7.250;2022-09-09T12:27:19;1.83;;;0.68;;
54416;SDS011;40326;51.220;7.250;2022-09-09T12:30:01;1.92;;;0.73;;
54416;SDS011;40326;51.220;7.250;2022-09-09T12:32:35;2.35;;;0.80;;
54416;SDS011;40326;51.220;7.250;2022-09-09T12:35:03;2.28;;;0.88;;
54416;SDS011;40326;51.220;7.250;2022-09-09T12:37:41;1.23;;;0.68;;
54416;SDS011;40326;51.220;7.250;2022-09-09T12:40:25;1.58;;;0.60;;
54416;SDS011;40326;51.220;7.250;2022-09-09T12:42:53;2.55;;;0.70;;
54416;SDS011;40326;51.220;7.250;2022-09-09T12:45:24;3.72;;;1.00;;
54416;SDS011;40326;51.220;7.250;2022-09-09T12:50:24;2.47;;;0.95;;
54416;SDS011;40326;51.220;7.250;2022-09-09T12:52:52;3.72;;;0.80;;
54416;SDS011;40326;51.220;7.250;2022-09-09T12:55:29;2.58;;;0.70;;
54416;SDS011;40326;51.220;7.250;2022-09-09T12:57:58;4.30;;;1.13;;
54416;SDS011;40326;51.220;7.250;2022-09-09T13:00:25;2.42;;;0.77;;
54416;SDS011;40326;51.220;7.250;2022-09-09T13:02:52;3.72;;;1.02;;
54416;SDS011;40326;51.220;7.250;2022-09-09T13:05:28;3.15;;;0.88;;
54416;SDS011;40326;51.220;7.250;2022-09-09T13:08:03;3.75;;;1.20;;
54416;SDS011;40326;51.220;7.250;2022-09-09T13:10:32;5.55;;;1.80;;
54416;SDS011;40326;51.220;7.250;2022-09-09T13:13:03;5.63;;;1.30;;
54416;SDS011;40326;51.220;7.250;2022-09-09T13:15:30;7.07;;;2.67;;
54416;SDS011;40326;51.220;7.250;2022-09-09T13:17:56;9.50;;;3.67;;
54416;SDS011;40326;51.220;7.250;2022-09-09T13:20:25;4.90;;;1.90;;
54416;SDS011;40326;51.220;7.250;2022-09-09T13:22:52;3.38;;;1.30;;
54416;SDS011;40326;51.220;7.250;2022-09-09T13:25:24;3.55;;;1.33;;
54416;SDS011;40326;51.220;7.250;2022-09-09T13:27:58;4.75;;;1.00;;
54416;SDS011;40326;51.220;7.250;2022-09-09T13:30:32;4.35;;;1.20;;
54416;SDS011;40326;51.220;7.250;2022-09-09T13:35:28;6.30;;;2.40;;
54416;SDS011;40326;51.220;7.250;2022-09-09T13:37:54;8.50;;;1.95;;
54416;SDS011;40326;51.220;7.250;2022-09-09T13:40:21;5.38;;;1.85;;
54416;SDS011;40326;51.220;7.250;2022-09-09T13:42:50;4.55;;;1.90;;
54416;SDS011;40326;51.220;7.250;2022-09-09T13:45:21;6.32;;;1.85;;
54416;SDS011;40326;51.220;7.250;2022-09-09T13:47:49;6.78;;;1.88;;
54416;SDS011;40326;51.220;7.250;2022-09-09T13:50:27;4.78;;;1.70;;
54416;SDS011;40326;51.220;7.250;2022-09-09T13:52:54;5.72;;;2.28;;
54416;SDS011;40326;51.220;7.250;2022-09-09T14:05:59;5.45;;;1.42;;
54416;SDS011;40326;51.220;7.250;2022-09-09T14:08:46;3.55;;;1.30;;
54416;SDS011;40326;51.220;7.250;2022-09-09T14:11:39;2.58;;;1.30;;
54416;SDS011;40326;51.220;7.250;2022-09-09T14:27:48;3.45;;;1.35;;
54416;SDS011;40326;51.220;7.250;2022-09-09T14:30:37;5.13;;;1.60;;
54416;SDS011;40326;51.220;7.250;2022-09-09T14:33:02;6.72;;;2.00;;
54416;SDS011;40326;51.220;7.250;2022-09-09T14:35:28;6.72;;;1.95;;
54416;SDS011;40326;51.220;7.250;2022-09-09T14:37:53;6.05;;;1.90;;
54416;SDS011;40326;51.220;7.250;2022-09-09T14:40:21;5.32;;;1.83;;
54416;SDS011;40326;51.220;7.250;2022-09-09T14:42:46;4.78;;;1.58;;
54416;SDS011;40326;51.220;7.250;2022-09-09T14:45:11;6.85;;;1.98;;
54416;SDS011;40326;51.220;7.250;2022-09-09T14:47:37;4.88;;;2.25;;
54416;SDS011;40326;51.220;7.250;2022-09-09T14:50:03;6.50;;;2.17;;
54416;SDS011;40326;51.220;7.250;2022-09-09T14:52:30;17.17;;;5.15;;
54416;SDS011;40326;51.220;7.250;2022-09-09T14:54:55;6.22;;;2.33;;
54416;SDS011;40326;51.220;7.250;2022-09-09T14:57:20;5.93;;;1.73;;
54416;SDS011;40326;51.220;7.250;2022-09-09T14:59:46;8.68;;;1.90;;
54416;SDS011;40326;51.220;7.250;2022-09-09T15:02:11;4.53;;;1.90;;
54416;SDS011;40326;51.220;7.250;2022-09-09T15:04:38;7.28;;;2.20;;
54416;SDS011;40326;51.220;7.250;2022-09-09T15:07:03;4.28;;;1.67;;
54416;SDS011;40326;51.220;7.250;2022-09-09T15:09:28;4.47;;;1.60;;
54416;SDS011;40326;51.220;7.250;2022-09-09T15:11:54;4.10;;;1.60;;
54416;SDS011;40326;51.220;7.250;2022-09-09T15:14:20;3.60;;;1.20;;
54416;SDS011;40326;51.220;7.250;2022-09-09T15:16:45;3.78;;;1.13;;
54416;SDS011;40326;51.220;7.250;2022-09-09T15:19:10;6.22;;;1.35;;
54416;SDS011;40326;51.220;7.250;2022-09-09T15:21:36;5.10;;;1.40;;
54416;SDS011;40326;51.220;7.250;2022-09-09T15:24:03;4.15;;;1.55;;
54416;SDS011;40326;51.220;7.250;2022-09-09T15:26:29;3.83;;;1.52;;
54416;SDS011;40326;51.220;7.250;2022-09-09T15:31:30;3.00;;;1.40;;
54416;SDS011;40326;51.220;7.250;2022-09-09T15:33:57;3.85;;;1.60;;
54416;SDS011;40326;51.220;7.250;2022-09-09T15:36:27;3.45;;;1.38;;
54416;SDS011;40326;51.220;7.250;2022-09-09T15:38:54;4.15;;;1.60;;
54416;SDS011;40326;51.220;7.250;2022-09-09T15:41:20;5.20;;;2.20;;
54416;SDS011;40326;51.220;7.250;2022-09-09T15:43:49;2.97;;;1.48;;
54416;SDS011;40326;51.220;7.250;2022-09-09T15:48:42;5.68;;;2.78;;
54416;SDS011;40326;51.220;7.250;2022-09-09T15:51:09;4.05;;;1.27;;
54416;SDS011;40326;51.220;7.250;2022-09-09T15:53:35;4.38;;;1.40;;
54416;SDS011;40326;51.220;7.250;2022-09-09T15:56:04;4.00;;;1.38;;
54416;SDS011;40326;51.220;7.250;2022-09-09T15:58:31;4.15;;;1.30;;
54416;SDS011;40326;51.220;7.250;2022-09-09T16:03:39;2.50;;;1.17;;
54416;SDS011;40326;51.220;7.250;2022-09-09T16:06:07;4.25;;;1.58;;
54416;SDS011;40326;51.220;7.250;2022-09-09T16:08:34;5.15;;;1.95;;
54416;SDS011;40326;51.220;7.250;2022-09-09T16:13:37;4.40;;;1.92;;
54416;SDS011;40326;51.220;7.250;2022-09-09T16:16:04;4.22;;;1.55;;
54416;SDS011;40326;51.220;7.250;2022-09-09T16:18:37;3.42;;;1.50;;
54416;SDS011;40326;51.220;7.250;2022-09-09T16:21:04;4.93;;;2.90;;
54416;SDS011;40326;51.220;7.250;2022-09-09T16:23:31;2.83;;;1.40;;
54416;SDS011;40326;51.220;7.250;2022-09-09T16:26:02;3.80;;;1.50;;
54416;SDS011;40326;51.220;7.250;2022-09-09T16:28:28;3.47;;;1.55;;
54416;SDS011;40326;51.220;7.250;2022-09-09T16:30:53;3.25;;;1.45;;
54416;SDS011;40326;51.220;7.250;2022-09-09T16:33:19;4.43;;;1.67;;
54416;SDS011;40326;51.220;7.250;2022-09-09T16:35:44;4.05;;;1.90;;
54416;SDS011;40326;51.220;7.250;2022-09-09T16:38:10;4.78;;;1.85;;
54416;SDS011;40326;51.220;7.250;2022-09-09T16:40:36;5.18;;;1.60;;
54416;SDS011;40326;51.220;7.250;2022-09-09T16:43:02;3.10;;;1.58;;
54416;SDS011;40326;51.220;7.250;2022-09-09T16:45:28;3.97;;;1.85;;
54416;SDS011;40326;51.220;7.250;2022-09-09T16:47:54;3.70;;;1.65;;
54416;SDS011;40326;51.220;7.250;2022-09-09T16:50:19;6.45;;;2.13;;
54416;SDS011;40326;51.220;7.250;2022-09-09T16:52:45;6.32;;;2.22;;
54416;SDS011;40326;51.220;7.250;2022-09-09T16:55:10;6.35;;;2.22;;
54416;SDS011;40326;51.220;7.250;2022-09-09T16:57:35;7.25;;;2.00;;
54416;SDS011;40326;51.220;7.250;2022-09-09T17:00:01;6.20;;;2.22;;
54416;SDS011;40326;51.220;7.250;2022-09-09T17:02:29;6.35;;;1.75;;
54416;SDS011;40326;51.220;7.250;2022-09-09T17:04:55;4.85;;;2.00;;
54416;SDS011;40326;51.220;7.250;2022-09-09T17:07:20;4.60;;;1.80;;
54416;SDS011;40326;51.220;7.250;2022-09-09T17:09:45;4.90;;;1.70;;
54416;SDS011;40326;51.220;7.250;2022-09-09T17:12:11;4.97;;;1.83;;
54416;SDS011;40326;51.220;7.250;2022-09-09T17:14:37;4.57;;;1.75;;
54416;SDS011;40326;51.220;7.250;2022-09-09T17:17:03;4.00;;;1.50;;
54416;SDS011;40326;51.220;7.250;2022-09-09T17:19:29;4.85;;;1.55;;
54416;SDS011;40326;51.220;7.250;2022-09-09T17:21:55;3.42;;;1.48;;
54416;SDS011;40326;51.220;7.250;2022-09-09T17:24:22;3.65;;;1.63;;
54416;SDS011;40326;51.220;7.250;2022-09-09T17:26:47;3.97;;;1.70;;
54416;SDS011;40326;51.220;7.250;2022-09-09T17:29:13;4.10;;;1.58;;
54416;SDS011;40326;51.220;7.250;2022-09-09T17:31:38;3.63;;;1.40;;
54416;SDS011;40326;51.220;7.250;2022-09-09T17:34:05;4.40;;;1.80;;
54416;SDS011;40326;51.220;7.250;2022-09-09T17:36:32;3.90;;;1.58;;
54416;SDS011;40326;51.220;7.250;2022-09-09T17:38:58;2.20;;;1.15;;
54416;SDS011;40326;51.220;7.250;2022-09-09T17:41:26;7.30;;;1.67;;
54416;SDS011;40326;51.220;7.250;2022-09-09T17:43:55;2.20;;;1.23;;
54416;SDS011;40326;51.220;7.250;2022-09-09T17:46:25;3.78;;;1.60;;
54416;SDS011;40326;51.220;7.250;2022-09-09T17:48:57;3.13;;;1.48;;
54416;SDS011;40326;51.220;7.250;2022-09-09T17:51:25;2.78;;;1.45;;